createdAt,value
2023-05-17T00:01:07.107Z,99.90
2023-05-17T00:03:33.814Z,99.90
2023-05-17T00:06:00.863Z,99.90
2023-05-17T00:08:27.589Z,99.90
2023-05-17T00:10:54.336Z,99.90
2023-05-17T00:13:21.385Z,99.90
2023-05-17T00:15:48.156Z,99.90
2023-05-17T00:18:15.352Z,99.90
2023-05-17T00:20:42.582Z,99.90
2023-05-17T00:23:09.370Z,99.90
2023-05-17T00:25:36.334Z,99.90
2023-05-17T00:28:03.459Z,99.90
2023-05-17T00:30:30.767Z,99.90
2023-05-17T00:32:57.654Z,99.90
2023-05-17T00:35:24.832Z,99.90
2023-05-17T00:37:51.621Z,99.90
2023-05-17T00:40:18.554Z,99.90
2023-05-17T00:42:45.650Z,99.90
2023-05-17T00:45:14.875Z,99.90
2023-05-17T00:47:42.900Z,99.90
2023-05-17T00:50:10.803Z,99.90
2023-05-17T00:52:38.206Z,99.90
2023-05-17T00:55:05.455Z,99.90
2023-05-17T00:57:32.509Z,99.90
2023-05-17T01:00:00.459Z,99.90
2023-05-17T01:02:27.425Z,99.90
2023-05-17T01:04:54.524Z,99.90
2023-05-17T01:07:21.348Z,99.90
2023-05-17T01:09:48.175Z,99.90
2023-05-17T01:12:29.233Z,99.90
2023-05-17T01:15:06.260Z,99.90
2023-05-17T01:17:36.407Z,99.90
2023-05-17T01:20:28.337Z,99.90
2023-05-17T01:23:13.282Z,99.90
2023-05-17T01:26:08.936Z,99.90
2023-05-17T01:28:38.602Z,99.90
2023-05-17T01:31:07.681Z,99.90
2023-05-17T01:33:34.954Z,99.90
2023-05-17T01:36:02.127Z,99.90
2023-05-17T01:38:29.107Z,99.90
2023-05-17T01:41:16.562Z,99.90
2023-05-17T01:43:51.631Z,99.90
2023-05-17T01:46:39.965Z,99.90
2023-05-17T01:49:15.545Z,99.90
2023-05-17T01:51:49.614Z,99.90
2023-05-17T01:54:23.104Z,99.90
2023-05-17T01:56:57.784Z,99.90
2023-05-17T01:59:25.500Z,99.90
2023-05-17T02:02:04.201Z,99.90
2023-05-17T02:04:31.281Z,99.90
2023-05-17T02:06:58.186Z,99.90
2023-05-17T02:09:24.956Z,99.90
2023-05-17T02:11:51.777Z,99.90
2023-05-17T02:14:18.930Z,99.90
2023-05-17T02:16:45.812Z,99.90
2023-05-17T02:19:13.242Z,99.90
2023-05-17T02:21:40.367Z,99.90
2023-05-17T02:24:07.273Z,99.90
2023-05-17T02:26:34.016Z,99.90
2023-05-17T02:29:01.346Z,99.90
2023-05-17T02:31:28.892Z,99.90
2023-05-17T02:33:55.967Z,99.90
2023-05-17T02:36:22.794Z,99.90
2023-05-17T02:38:49.599Z,99.90
2023-05-17T02:41:16.377Z,99.90
2023-05-17T02:43:44.850Z,99.90
2023-05-17T02:46:11.623Z,99.90
2023-05-17T02:48:38.357Z,99.90
2023-05-17T02:51:05.505Z,99.90
2023-05-17T02:53:32.226Z,99.90
2023-05-17T02:55:59.050Z,99.90
2023-05-17T02:58:26.404Z,99.90
2023-05-17T03:00:53.175Z,99.90
2023-05-17T03:03:19.974Z,99.90
2023-05-17T03:05:47.261Z,99.90
2023-05-17T03:08:14.064Z,99.90
2023-05-17T03:10:41.154Z,99.90
2023-05-17T03:13:07.910Z,99.90
2023-05-17T03:15:35.126Z,99.90
2023-05-17T03:18:01.908Z,99.90
2023-05-17T03:20:29.006Z,99.90
2023-05-17T03:22:55.982Z,99.90
2023-05-17T03:25:22.659Z,99.90
2023-05-17T03:27:49.512Z,99.90
2023-05-17T03:30:16.562Z,99.90
2023-05-17T03:32:43.384Z,99.90
2023-05-17T03:35:10.592Z,99.90
2023-05-17T03:37:37.580Z,99.90
2023-05-17T03:40:05.421Z,99.90
2023-05-17T03:42:32.200Z,99.90
2023-05-17T03:45:01.363Z,99.90
2023-05-17T03:47:28.466Z,99.90
2023-05-17T03:49:55.239Z,99.90
2023-05-17T03:52:22.244Z,99.90
2023-05-17T03:54:49.049Z,99.90
2023-05-17T03:57:16.136Z,99.90
2023-05-17T03:59:43.158Z,99.90
2023-05-17T04:02:09.962Z,99.90
2023-05-17T04:04:37.042Z,99.90
2023-05-17T04:07:05.853Z,99.90
2023-05-17T04:09:35.241Z,99.90
2023-05-17T04:12:02.304Z,99.90
2023-05-17T04:14:29.075Z,99.90
2023-05-17T04:16:56.082Z,99.90
2023-05-17T04:19:23.040Z,99.90
2023-05-17T04:21:52.101Z,99.90
2023-05-17T04:24:19.089Z,99.90
2023-05-17T04:26:46.081Z,99.90
2023-05-17T04:29:13.113Z,99.90
2023-05-17T04:31:39.908Z,99.90
2023-05-17T04:34:06.753Z,99.90
2023-05-17T04:36:34.089Z,99.90
2023-05-17T04:39:01.157Z,99.90
2023-05-17T04:41:28.017Z,99.90
2023-05-17T04:43:55.047Z,99.90
2023-05-17T04:46:22.064Z,99.90
2023-05-17T04:48:49.504Z,99.90
2023-05-17T04:51:16.376Z,99.90
2023-05-17T04:53:43.134Z,99.90
2023-05-17T04:56:10.042Z,99.90
2023-05-17T04:58:37.048Z,99.90
2023-05-17T05:01:04.647Z,99.90
2023-05-17T05:03:31.856Z,99.90
2023-05-17T05:05:58.648Z,99.90
2023-05-17T05:08:25.663Z,99.90
2023-05-17T05:10:52.450Z,99.90
2023-05-17T05:13:19.260Z,99.90
2023-05-17T05:15:46.306Z,99.90
2023-05-17T05:18:13.515Z,99.90
2023-05-17T05:20:40.341Z,99.90
2023-05-17T05:23:07.451Z,99.90
2023-05-17T05:25:34.723Z,99.90
2023-05-17T05:28:01.560Z,99.90
2023-05-17T05:30:28.525Z,99.90
2023-05-17T05:32:55.383Z,99.90
2023-05-17T05:35:29.783Z,99.90
2023-05-17T05:37:57.736Z,99.90
2023-05-17T05:40:24.540Z,99.90
2023-05-17T05:42:52.739Z,99.90
2023-05-17T05:45:19.852Z,99.90
2023-05-17T05:47:46.970Z,99.90
2023-05-17T05:50:13.768Z,99.90
2023-05-17T05:52:40.648Z,99.90
2023-05-17T05:55:07.774Z,99.90
2023-05-17T05:57:34.951Z,99.90
2023-05-17T06:00:01.727Z,99.90
2023-05-17T06:02:28.498Z,99.90
2023-05-17T06:04:55.786Z,99.90
2023-05-17T06:07:22.961Z,99.90
2023-05-17T06:09:49.787Z,99.90
2023-05-17T06:12:17.827Z,99.90
2023-05-17T06:14:44.827Z,99.90
2023-05-17T06:17:11.824Z,99.90
2023-05-17T06:19:39.013Z,99.90
2023-05-17T06:22:05.926Z,99.90
2023-05-17T06:24:33.234Z,99.90
2023-05-17T06:27:00.380Z,99.90
2023-05-17T06:29:27.332Z,99.90
2023-05-17T06:31:56.483Z,99.90
2023-05-17T06:34:23.289Z,99.90
2023-05-17T06:36:50.037Z,99.90
2023-05-17T06:39:17.258Z,99.90
2023-05-17T06:41:44.582Z,99.90
2023-05-17T06:44:11.833Z,99.90
2023-05-17T06:46:38.591Z,99.90
2023-05-17T06:49:05.835Z,99.90
2023-05-17T06:51:32.608Z,99.90
2023-05-17T06:53:59.341Z,99.90
2023-05-17T06:56:26.885Z,99.90
2023-05-17T06:58:53.891Z,99.90
2023-05-17T07:01:20.652Z,99.90
2023-05-17T07:03:47.621Z,99.90
2023-05-17T07:06:14.405Z,99.90
2023-05-17T07:08:41.658Z,99.90
2023-05-17T07:11:08.367Z,99.90
2023-05-17T07:13:35.129Z,99.90
2023-05-17T07:16:02.173Z,99.90
2023-05-17T07:18:29.023Z,99.90
2023-05-17T07:20:55.831Z,99.90
2023-05-17T07:23:22.870Z,99.20
2023-05-17T07:25:49.833Z,98.80
2023-05-17T07:28:16.668Z,98.40
2023-05-17T07:30:43.828Z,97.80
2023-05-17T07:33:10.604Z,98.00
2023-05-17T07:35:37.766Z,97.60
2023-05-17T07:38:04.511Z,95.80
2023-05-17T07:40:31.251Z,94.60
2023-05-17T07:42:57.991Z,93.40
2023-05-17T07:45:25.737Z,90.10
2023-05-17T07:47:52.815Z,87.10
2023-05-17T07:50:19.639Z,90.20
2023-05-17T07:52:46.362Z,89.90
2023-05-17T07:55:14.200Z,90.40
2023-05-17T07:57:43.951Z,91.90
2023-05-17T08:00:12.882Z,93.00
2023-05-17T08:02:40.598Z,93.40
2023-05-17T08:05:08.861Z,93.40
2023-05-17T08:07:35.906Z,93.30
2023-05-17T08:10:02.893Z,94.80
2023-05-17T08:12:29.939Z,94.10
2023-05-17T08:14:56.646Z,95.00
2023-05-17T08:17:23.454Z,96.00
2023-05-17T08:19:50.312Z,97.90
2023-05-17T08:22:17.542Z,96.90
2023-05-17T08:24:45.316Z,96.90
2023-05-17T08:27:12.186Z,97.30
2023-05-17T08:29:39.924Z,98.00
2023-05-17T08:32:09.981Z,98.50
2023-05-17T08:34:37.047Z,98.00
2023-05-17T08:37:03.974Z,97.10
2023-05-17T08:39:31.564Z,98.20
2023-05-17T08:41:59.739Z,95.10
2023-05-17T08:44:28.594Z,94.10
2023-05-17T08:46:59.588Z,93.30
2023-05-17T08:49:29.043Z,92.60
2023-05-17T08:51:59.774Z,95.00
2023-05-17T08:54:26.819Z,94.90
2023-05-17T08:57:00.601Z,95.30
2023-05-17T08:59:33.654Z,96.10
2023-05-17T09:02:01.509Z,96.70
2023-05-17T09:04:31.038Z,97.30
2023-05-17T09:06:58.096Z,97.50
2023-05-17T09:09:27.712Z,97.00
2023-05-17T09:11:57.526Z,96.70
2023-05-17T09:14:24.493Z,96.80
2023-05-17T09:17:00.139Z,97.60
2023-05-17T09:19:27.287Z,96.40
2023-05-17T09:21:55.190Z,97.20
2023-05-17T09:24:30.422Z,96.90
2023-05-17T09:27:04.284Z,98.10
2023-05-17T09:29:35.188Z,98.40
2023-05-17T09:32:15.026Z,98.80
2023-05-17T09:34:42.863Z,99.60
2023-05-17T09:37:15.331Z,99.90
2023-05-17T09:39:43.409Z,99.90
2023-05-17T09:42:10.587Z,99.90
2023-05-17T09:44:48.087Z,99.90
2023-05-17T09:47:29.181Z,99.90
2023-05-17T09:49:58.379Z,99.90
2023-05-17T09:52:25.375Z,99.30
2023-05-17T09:54:58.332Z,99.30
2023-05-17T09:57:26.888Z,99.60
2023-05-17T09:59:58.057Z,98.10
2023-05-17T10:02:31.083Z,98.30
2023-05-17T10:04:58.661Z,98.70
2023-05-17T10:07:26.870Z,99.40
2023-05-17T10:09:55.950Z,98.90
2023-05-17T10:12:24.372Z,99.20
2023-05-17T10:14:56.215Z,98.70
2023-05-17T10:17:24.486Z,99.20
2023-05-17T10:19:51.879Z,98.80
2023-05-17T10:22:23.697Z,98.90
2023-05-17T10:24:51.804Z,99.30
2023-05-17T10:27:18.985Z,99.70
2023-05-17T10:30:05.547Z,98.70
2023-05-17T10:32:32.602Z,99.90
2023-05-17T10:35:10.684Z,99.40
2023-05-17T10:37:57.493Z,99.20
2023-05-17T10:40:24.958Z,96.50
2023-05-17T10:42:53.821Z,96.40
2023-05-17T10:45:22.400Z,97.20
2023-05-17T10:47:52.860Z,96.80
2023-05-17T10:50:24.463Z,96.30
2023-05-17T10:52:52.614Z,96.80
2023-05-17T10:55:38.078Z,95.70
2023-05-17T10:58:11.166Z,96.20
2023-05-17T11:00:42.435Z,95.80
2023-05-17T11:03:26.321Z,96.10
2023-05-17T11:06:24.361Z,96.10
2023-05-17T11:09:13.863Z,96.40
2023-05-17T11:12:04.614Z,96.00
2023-05-17T11:14:53.524Z,95.80
2023-05-17T11:17:27.035Z,94.80
2023-05-17T11:20:02.647Z,92.90
2023-05-17T11:22:41.525Z,93.30
2023-05-17T11:25:28.293Z,92.00
2023-05-17T11:27:55.210Z,90.00
2023-05-17T11:30:24.589Z,90.10
2023-05-17T11:33:16.621Z,92.30
2023-05-17T11:35:54.629Z,90.80
2023-05-17T11:38:24.374Z,90.50
2023-05-17T11:40:54.423Z,92.40
2023-05-17T11:43:26.104Z,92.00
2023-05-17T11:45:57.673Z,92.00
2023-05-17T11:48:26.853Z,92.30
2023-05-17T11:50:58.832Z,92.00
2023-05-17T11:53:27.998Z,92.70
2023-05-17T11:55:56.041Z,93.00
2023-05-17T11:58:26.849Z,92.30
2023-05-17T12:00:55.703Z,92.60
2023-05-17T12:03:25.553Z,93.60
2023-05-17T12:06:14.725Z,92.50
2023-05-17T12:08:46.413Z,92.80
2023-05-17T12:11:17.576Z,92.80
2023-05-17T12:13:46.901Z,91.80
2023-05-17T12:16:17.929Z,92.00
2023-05-17T12:18:52.064Z,92.10
2023-05-17T12:21:21.668Z,91.40
2023-05-17T12:23:51.992Z,90.10
2023-05-17T12:26:23.448Z,90.10
2023-05-17T12:28:58.379Z,89.40
2023-05-17T12:31:33.459Z,87.00
2023-05-17T12:34:02.865Z,87.80
2023-05-17T12:36:33.899Z,87.90
2023-05-17T12:39:02.464Z,90.00
2023-05-17T12:41:30.791Z,90.00
2023-05-17T12:44:13.865Z,90.40
2023-05-17T12:46:42.720Z,90.40
2023-05-17T12:49:12.045Z,90.70
2023-05-17T12:51:46.400Z,89.20
2023-05-17T12:54:27.968Z,89.30
2023-05-17T12:56:55.558Z,88.10
2023-05-17T12:59:25.786Z,85.80
2023-05-17T13:02:03.364Z,82.60
2023-05-17T13:04:32.673Z,82.10
2023-05-17T13:07:04.662Z,81.60
2023-05-17T13:09:33.013Z,81.80
2023-05-17T13:12:02.495Z,84.70
2023-05-17T13:14:42.674Z,83.90
2023-05-17T13:17:13.466Z,85.10
2023-05-17T13:19:40.353Z,84.90
2023-05-17T13:22:07.412Z,83.90
2023-05-17T13:24:36.328Z,82.40
2023-05-17T13:27:04.075Z,80.30
2023-05-17T13:29:39.739Z,83.00
2023-05-17T13:32:08.999Z,83.30
2023-05-17T13:34:36.467Z,86.60
2023-05-17T13:37:04.118Z,86.20
2023-05-17T13:39:30.930Z,87.40
2023-05-17T13:41:59.273Z,88.50
2023-05-17T13:44:26.415Z,89.00
2023-05-17T13:46:53.414Z,90.30
2023-05-17T13:49:20.860Z,90.30
2023-05-17T13:51:48.021Z,90.80
2023-05-17T13:54:15.164Z,91.10
2023-05-17T13:56:41.953Z,92.00
2023-05-17T13:59:08.744Z,92.00
2023-05-17T14:01:35.813Z,91.40
2023-05-17T14:04:02.887Z,91.70
2023-05-17T14:06:29.935Z,92.30
2023-05-17T14:08:58.040Z,91.20
2023-05-17T14:11:24.980Z,83.70
2023-05-17T14:13:51.872Z,82.90
2023-05-17T14:16:18.894Z,82.50
2023-05-17T14:18:46.434Z,80.70
2023-05-17T14:21:13.557Z,80.90
2023-05-17T14:23:40.289Z,82.30
2023-05-17T14:26:07.652Z,79.10
2023-05-17T14:28:38.367Z,79.50
2023-05-17T14:31:09.410Z,74.70
2023-05-17T14:33:36.377Z,77.40
2023-05-17T14:36:06.754Z,77.80
2023-05-17T14:38:33.496Z,76.90
2023-05-17T14:41:03.426Z,75.10
2023-05-17T14:43:30.252Z,74.30
2023-05-17T14:45:57.344Z,74.10
2023-05-17T14:48:24.260Z,75.00
2023-05-17T14:50:53.302Z,76.50
2023-05-17T14:53:20.369Z,73.60
2023-05-17T14:55:47.700Z,76.10
2023-05-17T14:58:14.414Z,76.10
2023-05-17T15:00:45.071Z,76.50
2023-05-17T15:03:11.945Z,75.90
2023-05-17T15:05:38.980Z,76.40
2023-05-17T15:08:06.121Z,77.70
2023-05-17T15:10:33.204Z,80.00
2023-05-17T15:13:00.330Z,78.70
2023-05-17T15:15:28.203Z,78.40
2023-05-17T15:17:55.303Z,81.50
2023-05-17T15:20:22.756Z,80.20
2023-05-17T15:22:49.814Z,81.50
2023-05-17T15:25:16.630Z,80.50
2023-05-17T15:27:43.958Z,77.90
2023-05-17T15:30:13.315Z,80.40
2023-05-17T15:32:41.003Z,82.20
2023-05-17T15:35:08.253Z,78.40
2023-05-17T15:37:35.326Z,78.90
2023-05-17T15:40:09.817Z,81.20
2023-05-17T15:42:37.005Z,80.60
2023-05-17T15:45:04.047Z,80.70
2023-05-17T15:47:42.654Z,80.10
2023-05-17T15:50:11.261Z,79.60
2023-05-17T15:52:39.285Z,79.70
2023-05-17T15:55:06.865Z,80.50
2023-05-17T15:57:33.562Z,80.20
2023-05-17T16:00:00.386Z,80.30
2023-05-17T16:02:27.276Z,79.00
2023-05-17T16:04:54.373Z,80.10
2023-05-17T16:07:21.431Z,82.70
2023-05-17T16:09:48.226Z,83.10
2023-05-17T16:12:15.087Z,83.40
2023-05-17T16:14:41.843Z,82.70
2023-05-17T16:17:08.877Z,84.70
2023-05-17T16:19:35.657Z,84.50
2023-05-17T16:22:02.845Z,80.00
2023-05-17T16:24:29.650Z,81.30
2023-05-17T16:26:56.798Z,80.20
2023-05-17T16:29:23.546Z,81.00
2023-05-17T16:31:51.526Z,81.60
2023-05-17T16:34:18.684Z,81.80
2023-05-17T16:36:48.320Z,81.80
2023-05-17T16:39:15.352Z,83.80
2023-05-17T16:41:42.134Z,83.90
2023-05-17T16:44:09.199Z,85.40
2023-05-17T16:46:38.185Z,80.20
2023-05-17T16:49:05.111Z,79.50
2023-05-17T16:51:32.113Z,81.10
2023-05-17T16:53:58.855Z,80.90
2023-05-17T16:56:25.651Z,81.10
2023-05-17T16:58:52.693Z,84.00
2023-05-17T17:01:19.475Z,84.90
2023-05-17T17:03:46.333Z,85.10
2023-05-17T17:06:13.371Z,83.30
2023-05-17T17:08:40.268Z,84.90
2023-05-17T17:11:07.009Z,83.10
2023-05-17T17:13:34.121Z,81.20
2023-05-17T17:16:01.323Z,82.70
2023-05-17T17:18:29.130Z,83.10
2023-05-17T17:20:55.997Z,84.70
2023-05-17T17:23:22.795Z,83.20
2023-05-17T17:25:49.631Z,83.40
2023-05-17T17:28:16.504Z,84.00
2023-05-17T17:30:43.479Z,84.10
2023-05-17T17:33:10.370Z,84.80
2023-05-17T17:35:37.486Z,83.70
2023-05-17T17:38:04.420Z,83.90
2023-05-17T17:40:31.825Z,84.10
2023-05-17T17:42:59.143Z,84.70
2023-05-17T17:45:25.961Z,85.10
2023-05-17T17:47:53.039Z,86.10
2023-05-17T17:50:19.834Z,87.30
2023-05-17T17:52:46.936Z,87.80
2023-05-17T17:55:13.774Z,88.40
2023-05-17T17:57:41.940Z,86.10
2023-05-17T18:00:11.981Z,88.10
2023-05-17T18:03:40.733Z,88.70
2023-05-17T18:06:07.568Z,89.10
2023-05-17T18:08:34.467Z,88.10
2023-05-17T18:11:01.403Z,89.70
2023-05-17T18:13:28.153Z,90.00
2023-05-17T18:15:55.057Z,90.20
2023-05-17T18:18:21.877Z,90.60
2023-05-17T18:20:48.694Z,90.40
2023-05-17T18:23:15.734Z,90.20
2023-05-17T18:25:42.693Z,91.20
2023-05-17T18:28:09.439Z,90.60
2023-05-17T18:30:36.469Z,91.50
2023-05-17T18:33:03.391Z,91.80
2023-05-17T18:35:30.564Z,92.40
2023-05-17T18:37:57.515Z,93.00
2023-05-17T18:40:26.424Z,93.50
2023-05-17T18:42:53.671Z,93.80
2023-05-17T18:45:20.720Z,94.00
2023-05-17T18:47:47.580Z,94.40
2023-05-17T18:50:14.380Z,94.50
2023-05-17T18:52:41.242Z,95.30
2023-05-17T18:55:08.254Z,95.30
2023-05-17T18:57:35.220Z,95.60
2023-05-17T19:00:02.290Z,95.60
2023-05-17T19:02:29.097Z,95.80
2023-05-17T19:04:56.141Z,96.40
2023-05-17T19:07:23.128Z,96.70
2023-05-17T19:10:10.246Z,97.20
2023-05-17T19:12:37.006Z,97.30
2023-05-17T19:15:04.667Z,97.50
2023-05-17T19:17:31.854Z,97.50
2023-05-17T19:19:58.729Z,97.60
2023-05-17T19:22:25.726Z,97.70
2023-05-17T19:24:52.517Z,97.60
2023-05-17T19:27:19.898Z,98.60
2023-05-17T19:29:49.782Z,99.30
2023-05-17T19:32:16.882Z,99.30
2023-05-17T19:34:43.762Z,99.90
2023-05-17T19:37:10.573Z,99.90
2023-05-17T19:39:37.828Z,99.90
2023-05-17T19:42:04.854Z,99.90
2023-05-17T19:44:31.907Z,99.90
2023-05-17T19:46:58.651Z,99.90
2023-05-17T19:49:25.481Z,99.90
2023-05-17T19:51:54.123Z,99.90
2023-05-17T19:54:22.031Z,99.90
2023-05-17T19:56:48.868Z,99.90
2023-05-17T19:59:15.735Z,99.90
2023-05-17T20:01:42.603Z,99.90
2023-05-17T20:04:10.768Z,99.90
2023-05-17T20:06:37.741Z,99.90
2023-05-17T20:09:04.888Z,99.90
2023-05-17T20:11:31.940Z,99.90
2023-05-17T20:13:58.773Z,99.90
2023-05-17T20:16:28.327Z,99.90
2023-05-17T20:18:55.233Z,99.90
2023-05-17T20:21:23.633Z,99.90
2023-05-17T20:23:52.405Z,99.90
2023-05-17T20:26:25.953Z,99.90
2023-05-17T20:28:53.727Z,99.90
2023-05-17T20:31:20.800Z,99.90
2023-05-17T20:33:47.587Z,99.90
2023-05-17T20:36:14.990Z,99.90
2023-05-17T20:38:42.728Z,99.90
2023-05-17T20:41:11.042Z,99.90
2023-05-17T20:43:38.185Z,99.90
2023-05-17T20:46:07.269Z,99.90
2023-05-17T20:48:34.398Z,99.90
2023-05-17T20:51:01.586Z,99.90
2023-05-17T20:53:46.844Z,99.90
2023-05-17T20:56:19.534Z,99.90
2023-05-17T20:58:47.712Z,99.90
2023-05-17T21:01:14.811Z,99.90
2023-05-17T21:03:43.573Z,99.90
2023-05-17T21:06:11.062Z,99.90
2023-05-17T21:08:38.540Z,99.90
2023-05-17T21:11:05.611Z,99.90
2023-05-17T21:13:32.481Z,99.90
2023-05-17T21:15:59.342Z,99.90
2023-05-17T21:18:26.359Z,99.90
2023-05-17T21:20:55.401Z,99.90
2023-05-17T21:23:22.212Z,99.90
2023-05-17T21:25:49.223Z,99.90
2023-05-17T21:28:16.317Z,99.90
2023-05-17T21:30:43.379Z,99.90
2023-05-17T21:33:10.334Z,99.90
2023-05-17T21:35:37.162Z,99.90
2023-05-17T21:38:04.354Z,99.90
2023-05-17T21:40:31.707Z,99.90
2023-05-17T21:42:58.787Z,99.90
2023-05-17T21:45:25.812Z,99.90
2023-05-17T21:47:52.718Z,99.90
2023-05-17T21:50:20.031Z,99.90
2023-05-17T21:52:46.785Z,99.90
2023-05-17T21:55:13.615Z,99.90
2023-05-17T21:57:40.658Z,99.90
2023-05-17T22:00:12.593Z,99.90
2023-05-17T22:02:43.081Z,99.90
2023-05-17T22:05:09.989Z,99.90
2023-05-17T22:07:37.246Z,99.90
2023-05-17T22:10:07.971Z,99.90
2023-05-17T22:12:36.439Z,99.90
2023-05-17T22:15:03.406Z,99.90
2023-05-17T22:17:39.187Z,99.90
2023-05-17T22:20:17.171Z,99.90
2023-05-17T22:22:44.194Z,99.90
2023-05-17T22:25:11.028Z,99.90
2023-05-17T22:27:38.115Z,99.90
2023-05-17T22:30:06.302Z,99.90
2023-05-17T22:32:33.364Z,99.90
2023-05-17T22:35:00.165Z,99.90
2023-05-17T22:37:27.357Z,99.90
2023-05-17T22:39:54.094Z,99.90
2023-05-17T22:42:21.171Z,99.90
2023-05-17T22:44:47.947Z,99.90
2023-05-17T22:47:16.735Z,99.90
2023-05-17T22:49:43.637Z,99.90
2023-05-17T22:52:11.200Z,99.90
2023-05-17T22:54:38.955Z,99.90
2023-05-17T22:57:06.092Z,99.90
2023-05-17T22:59:33.206Z,99.90
2023-05-17T23:02:00.977Z,99.90
2023-05-17T23:04:30.402Z,99.90
2023-05-17T23:07:04.165Z,99.90
2023-05-17T23:09:31.312Z,99.90
2023-05-17T23:12:00.540Z,99.90
2023-05-17T23:14:27.816Z,99.90
2023-05-17T23:16:54.560Z,99.90
2023-05-17T23:19:23.493Z,99.90
2023-05-17T23:21:50.631Z,99.90
2023-05-17T23:24:17.689Z,99.90
2023-05-17T23:26:44.399Z,99.90
2023-05-17T23:29:12.858Z,99.90
2023-05-17T23:31:41.357Z,99.90
2023-05-17T23:34:08.426Z,99.90
2023-05-17T23:36:35.192Z,99.90
2023-05-17T23:39:01.992Z,99.90
2023-05-17T23:41:29.575Z,99.90
2023-05-17T23:43:57.208Z,99.90
2023-05-17T23:46:24.466Z,99.90
2023-05-17T23:48:51.314Z,99.90
2023-05-17T23:51:21.468Z,99.90
2023-05-17T23:53:49.251Z,99.90
2023-05-17T23:56:17.797Z,99.90
2023-05-17T23:58:45.686Z,99.90
